BIENVENIDO A Fly Ecuador Virtual

Fly Ecuador Virtual es una organización creada con el fin de brindar una plataforma que permita a los pilotos virtuales, principalmente ecuatorianos, tener un lugar donde registrar sus horas de vuelo, sus certificados de conocimiento adquiridos, las rutas que han volado y los destinos que han visitado. Así mismo, se busca ayudar a todos los pilotos a expandir su conocimiento sobre el mundo de la aviación real y virtual por medio de publicaciones, foros y cursos en línea.

A diferencia de las aerolíneas virtuales tradicionales, Fly Ecuador Virtual no simula las operaciones de una aerolínea del mundo real en específico. Un miembro de Fly Ecuador Virtual tiene toda la libertad de volar cualquier aeronave que opere en el espacio aéreo ecuatoriano real, en cualquier ruta, sea esta nacional o internacional, IFR o VFR, aeronaves monomotor, multimotor o helicópteros. Todo esto con el objetivo de expandir las operaciones virtuales dentro del espacio aéreo ecuatoriano, creando una comunidad en la que se compartan conocimientos y experiencias que beneficien a todos sus integrantes.

El crecimiento de Fly Ecuador Virtual depende de la participación conjunta de todos sus miembros, por este motivo se incentiva la participación en línea a través de los diferentes medios descritos más adelante en este sitio web.

 ESTADÍSTICAS

Pilotos 40
Aeronaves en flota 0
Rutas 0
Horas totales: 13062.09
Vuelos totales 1692
Vuelos Regular 0
Vuelos Charter 1739
% Vuelos Regular 0.00 %

 ÚLTIMOS VUELOS

IndicativoPilotoOrigenDestinoFechaTiempo de vuelo
ECU024Arturo Carvajal  SEMT  SEQM 2019-01-13 0.66
ECU024Arturo Carvajal  SECU  SEQM 2018-12-16 0.58
ECU024Arturo Carvajal  SVMI  SEQM 2018-12-09 2.18
ECU024Arturo Carvajal  SEGU  SEQM 2018-11-25 0.54
ECU024Arturo Carvajal  SEGS  MRLB 2018-11-11 1.99

 NUEVOS PILOTOS

 Consultar METAR

METAR
SEGU - José Joaquín de Olmedo International Airport, Guayaquil, ECU
Distance from station: N 0mi, 0km
Updated: Wed, 23-Jan-2019 10:00pm PST
Mostly Cloudy
Mostly Cloudy
 Wind from WSW
Wind: WSW 8 mph , 13 km/h
Temperature: 81°F , 27°C
Heat Index: 85°F , 29°C
Dew Point: 70°F , 21°C
Humidity: 70%
Barometer: 29.77 inHg , 1008 hPa
Clouds: Mostly Cloudy
Visibility: 6 miles , 10 km
Cloud details: Partly Cloudy 3300 ft
Mostly Cloudy 10000 ft
2019/01/24 06:00 SEGU 240600Z 24007KT 9999 SCT033 BKN100 27/21 Q1008 NOSIG RMK A2978
 
SEQM - Aeropuerto Internacional Mariscal Sucre, ECU
Distance from station: NE 120mi, 200km
Updated: Wed, 23-Jan-2019 10:00pm PST
Partly Cloudy
Partly Cloudy
 Wind from SE
Wind: SE 5 mph , 7 km/h
Temperature: 54°F , 12°C
Dew Point: 46°F , 8°C
Humidity: 77%
Barometer: 30.24 inHg , 1024 hPa
Clouds: Partly Cloudy
Visibility: 6 miles , 10 km
Cloud details: Few Clouds 3300 ft
Partly Cloudy 10000 ft
2019/01/24 06:00 SEQM 240600Z 13004KT 9999 FEW033 SCT100 12/08 Q1024 NOSIG RMK A3025
 
SECU - Mariscal Lamar Airpor, ECU
Distance from station: ENE 80mi, 120km
Updated: Wed, 23-Jan-2019 10:00pm PST

 Wind from N
Wind: N 5 mph , 7 km/h
2019/01/24 06:00 SECU 240600Z AUTO 35004KT 310V030 ////NDV NCD 15/11 Q1027
 
SELT - Cotopaxi International Airport, ECU
Distance from station: NW 21mi, 34km
Updated: Wed, 23-Jan-2019 10:00pm PST
Mostly Cloudy
Mostly Cloudy
 Wind from S
Wind: S 8 mph , 13 km/h
Temperature: 54°F , 12°C
Dew Point: 50°F , 10°C
Humidity: 88%
Barometer: 30.45 inHg , 1031 hPa
Clouds: Mostly Cloudy
Visibility: 6 miles , 10 km
Cloud details: Few Clouds 2000 ft
Mostly Cloudy 3000 ft
2019/01/24 06:00 SELT 240600Z 17007KT 9999 FEW020 BKN030 12/10 Q1031
 
SEMT - Eloy Alfaro International Airport, ECU
Distance from station: SSE 70mi, 100km
Updated: Wed, 23-Jan-2019 8:00pm PST
NOT Current
Few Clouds
Few Clouds
 Wind from SW
Wind: SW 6 mph , 9 km/h
Temperature: 79°F , 26°C
Dew Point: 73°F , 23°C
Humidity: 84%
Barometer: 29.83 inHg , 1010 hPa
Clouds: Few Clouds
Visibility: 6 miles , 10 km
Cloud details: Few Clouds 2000 ft
2019/01/24 04:00 SEMT 240400Z 22005KT 9999 FEW020 26/23 Q1010

Metar display script from Saratoga-Weather.org

 NOTAMS

NOTAMFecha



Fly Ecuador Virtual 2018 | System by VAM